createdAt,value
2023-03-08T00:03:48.054Z,4.38
2023-03-08T00:08:54.826Z,6.55
2023-03-08T00:14:00.144Z,4.63
2023-03-08T00:19:03.862Z,3.10
2023-03-08T00:24:07.834Z,5.57
2023-03-08T00:29:13.461Z,3.60
2023-03-08T00:34:17.221Z,4.82
2023-03-08T00:39:20.906Z,3.05
2023-03-08T00:44:26.406Z,3.13
2023-03-08T00:49:30.335Z,4.95
2023-03-08T00:54:34.054Z,3.85
2023-03-08T00:59:39.557Z,4.10
2023-03-08T01:04:43.176Z,4.50
2023-03-08T01:09:46.863Z,5.53
2023-03-08T01:14:52.185Z,2.17
2023-03-08T01:19:55.961Z,4.97
2023-03-08T01:24:59.833Z,3.20
2023-03-08T01:30:05.497Z,3.13
2023-03-08T01:35:09.884Z,4.30
2023-03-08T01:40:16.168Z,9.63
2023-03-08T01:45:55.908Z,2.83
2023-03-08T01:51:03.322Z,6.28
2023-03-08T01:56:09.791Z,3.58
2023-03-08T02:01:13.565Z,6.13
2023-03-08T02:06:21.399Z,6.70
2023-03-08T02:11:27.146Z,6.00
2023-03-08T02:16:30.784Z,4.03
2023-03-08T02:21:36.230Z,4.10
2023-03-08T02:26:41.527Z,3.40
2023-03-08T02:31:45.232Z,4.82
2023-03-08T02:36:48.888Z,4.55
2023-03-08T02:41:54.183Z,4.80
2023-03-08T02:46:57.855Z,3.05
2023-03-08T02:52:01.500Z,4.10
2023-03-08T02:57:06.853Z,6.10
2023-03-08T03:02:10.496Z,4.63
2023-03-08T03:07:14.127Z,8.10
2023-03-08T03:12:19.421Z,5.10
2023-03-08T03:17:23.150Z,9.98
2023-03-08T03:22:26.832Z,7.75
2023-03-08T03:27:33.408Z,5.95
2023-03-08T03:32:37.078Z,5.55
2023-03-08T03:37:40.711Z,6.32
2023-03-08T03:42:46.008Z,8.27
2023-03-08T03:47:49.641Z,7.70
2023-03-08T03:52:53.311Z,7.50
2023-03-08T03:57:59.600Z,9.23
2023-03-08T04:08:06.556Z,7.05
2023-03-08T04:13:12.692Z,5.30
2023-03-08T04:18:16.336Z,7.50
2023-03-08T04:23:20.019Z,7.72
2023-03-08T04:28:25.657Z,6.43
2023-03-08T04:33:29.328Z,9.57
2023-03-08T04:38:33.012Z,7.30
2023-03-08T04:43:38.396Z,7.35
2023-03-08T04:48:42.428Z,6.70
2023-03-08T04:53:46.253Z,4.40
2023-03-08T04:58:51.555Z,6.15
2023-03-08T05:03:56.435Z,6.15
2023-03-08T05:09:01.425Z,9.70
2023-03-08T05:14:06.715Z,9.40
2023-03-08T05:19:10.384Z,7.22
2023-03-08T05:24:14.135Z,8.30
2023-03-08T05:29:19.420Z,7.50
2023-03-08T05:34:23.056Z,7.40
2023-03-08T05:39:26.708Z,6.80
2023-03-08T05:44:32.050Z,7.32
2023-03-08T05:49:35.754Z,6.90
2023-03-08T05:54:39.368Z,5.30
2023-03-08T05:59:44.613Z,6.78
2023-03-08T06:04:48.274Z,7.45
2023-03-08T06:09:51.944Z,9.80
2023-03-08T06:14:57.206Z,7.25
2023-03-08T06:20:00.816Z,6.43
2023-03-08T06:25:05.437Z,6.05
2023-03-08T06:30:12.134Z,4.80
2023-03-08T06:35:15.761Z,8.43
2023-03-08T06:40:19.626Z,6.78
2023-03-08T06:45:24.896Z,6.63
2023-03-08T06:50:28.528Z,4.22
2023-03-08T06:55:32.177Z,4.90
2023-03-08T07:00:37.591Z,9.63
2023-03-08T07:05:41.424Z,2.95
2023-03-08T07:10:45.177Z,4.38
2023-03-08T07:15:50.694Z,5.90
2023-03-08T07:20:56.045Z,5.63
2023-03-08T07:25:59.683Z,5.78
2023-03-08T07:31:05.195Z,4.35
2023-03-08T07:36:09.211Z,7.00
2023-03-08T07:41:12.854Z,5.13
2023-03-08T07:46:18.214Z,4.63
2023-03-08T07:51:22.170Z,6.28
2023-03-08T07:56:25.887Z,6.22
2023-03-08T08:01:31.433Z,6.30
2023-03-08T08:06:36.977Z,5.80
2023-03-08T08:11:40.584Z,6.83
2023-03-08T08:16:45.925Z,6.82
2023-03-08T08:21:49.577Z,3.30
2023-03-08T08:26:53.342Z,7.68
2023-03-08T08:31:58.649Z,8.30
2023-03-08T08:37:02.313Z,6.93
2023-03-08T08:42:06.141Z,6.32
2023-03-08T08:47:12.423Z,8.07
2023-03-08T08:57:18.900Z,6.78
2023-03-08T09:02:24.214Z,8.35
2023-03-08T09:07:27.886Z,9.40
2023-03-08T09:12:31.974Z,8.43
2023-03-08T09:17:37.260Z,9.80
2023-03-08T09:22:41.212Z,6.65
2023-03-08T09:27:44.905Z,6.93
2023-03-08T09:32:50.213Z,10.35
2023-03-08T09:37:55.509Z,4.78
2023-03-08T09:43:06.010Z,7.13
2023-03-08T09:48:18.257Z,9.45
2023-03-08T09:53:28.354Z,8.82
2023-03-08T09:58:39.580Z,8.95
2023-03-08T10:04:08.441Z,9.15
2023-03-08T10:09:31.515Z,5.15
2023-03-08T10:14:39.614Z,6.63
2023-03-08T10:19:49.874Z,8.50
2023-03-08T10:25:00.568Z,10.30
2023-03-08T10:30:14.562Z,6.55
2023-03-08T10:35:31.156Z,5.18
2023-03-08T10:45:37.715Z,5.13
2023-03-08T10:50:42.985Z,7.10
2023-03-08T10:55:49.728Z,4.55
2023-03-08T11:00:55.165Z,4.65
2023-03-08T11:06:02.371Z,4.07
2023-03-08T11:11:09.400Z,3.03
2023-03-08T11:16:31.771Z,2.20
2023-03-08T11:21:47.842Z,4.22
2023-03-08T11:27:04.031Z,7.90
2023-03-08T11:32:18.856Z,4.43
2023-03-08T11:37:32.375Z,4.50
2023-03-08T11:42:49.668Z,5.38
2023-03-08T11:48:07.191Z,0.80
2023-03-08T11:53:29.699Z,1.73
2023-03-08T11:58:37.440Z,0.90
2023-03-08T12:03:47.243Z,2.40
2023-03-08T12:08:57.855Z,4.95
2023-03-08T12:14:07.154Z,1.30
2023-03-08T12:19:19.651Z,1.77
2023-03-08T12:24:36.240Z,2.38
2023-03-08T12:34:48.163Z,2.08
2023-03-08T12:40:02.451Z,1.40
2023-03-08T12:45:26.583Z,2.00
2023-03-08T12:50:31.336Z,0.77
2023-03-08T12:55:36.666Z,2.88
2023-03-08T13:00:40.368Z,2.70
2023-03-08T13:05:44.667Z,3.88
2023-03-08T13:11:12.101Z,1.98
2023-03-08T13:16:33.794Z,1.75
2023-03-08T13:21:40.922Z,1.88
2023-03-08T13:26:58.356Z,1.23
2023-03-08T13:32:08.377Z,2.33
2023-03-08T13:37:22.480Z,1.35
2023-03-08T13:42:29.566Z,0.75
2023-03-08T13:47:36.323Z,1.10
2023-03-08T13:52:40.015Z,1.00
2023-03-08T13:57:50.800Z,1.98
2023-03-08T14:02:54.743Z,2.22
2023-03-08T14:08:00.554Z,1.60
2023-03-08T14:13:07.925Z,2.97
2023-03-08T14:18:22.707Z,2.65
2023-03-08T14:23:27.588Z,1.38
2023-03-08T14:28:50.437Z,2.35
2023-03-08T14:33:59.653Z,3.22
2023-03-08T14:39:03.358Z,1.90
2023-03-08T14:44:17.914Z,4.10
2023-03-08T14:49:23.758Z,1.58
2023-03-08T14:54:35.245Z,2.07
2023-03-08T14:59:43.226Z,1.70
2023-03-08T15:04:47.619Z,1.25
2023-03-08T15:09:52.230Z,2.40
2023-03-08T15:14:57.606Z,4.05
2023-03-08T15:20:01.282Z,1.33
2023-03-08T15:25:13.054Z,3.17
2023-03-08T15:30:24.245Z,1.90
2023-03-08T15:35:27.966Z,2.92
2023-03-08T15:40:35.068Z,1.73
2023-03-08T15:45:40.520Z,1.77
2023-03-08T15:50:45.729Z,2.13
2023-03-08T15:55:49.368Z,2.28
2023-03-08T16:00:54.688Z,2.35
2023-03-08T16:05:58.413Z,1.63
2023-03-08T16:11:02.088Z,5.22
2023-03-08T16:16:08.335Z,2.85
2023-03-08T16:26:17.746Z,3.15
2023-03-08T16:31:23.829Z,2.58
2023-03-08T16:36:27.554Z,2.22
2023-03-08T16:41:31.240Z,3.50
2023-03-08T16:46:36.518Z,3.97
2023-03-08T16:51:40.305Z,6.57
2023-03-08T16:56:44.884Z,2.67
2023-03-08T17:01:50.237Z,3.20
2023-03-08T17:06:53.866Z,5.00
2023-03-08T17:11:57.508Z,4.38
2023-03-08T17:17:02.809Z,4.18
2023-03-08T17:22:06.547Z,5.90
2023-03-08T17:27:10.952Z,3.45
2023-03-08T17:32:16.271Z,1.95
2023-03-08T17:37:19.942Z,2.90
2023-03-08T17:42:23.599Z,5.45
2023-03-08T17:47:28.881Z,3.53
2023-03-08T17:52:35.051Z,4.15
2023-03-08T17:57:39.343Z,3.13
2023-03-08T18:02:45.663Z,3.35
2023-03-08T18:07:49.282Z,2.88
2023-03-08T18:12:52.917Z,2.05
2023-03-08T18:17:58.267Z,3.58
2023-03-08T18:23:01.972Z,3.00
2023-03-08T18:33:33.665Z,1.42
2023-03-08T18:38:37.391Z,5.23
2023-03-08T18:43:41.117Z,4.78
2023-03-08T18:48:46.406Z,2.78
2023-03-08T18:53:50.090Z,3.47
2023-03-08T18:58:54.016Z,6.25
2023-03-08T19:04:00.264Z,1.90
2023-03-08T19:09:09.579Z,3.03
2023-03-08T19:14:13.470Z,1.63
2023-03-08T19:19:18.806Z,1.98
2023-03-08T19:24:22.665Z,1.57
2023-03-08T19:29:28.111Z,2.75
2023-03-08T19:34:34.910Z,2.25
2023-03-08T19:39:39.825Z,3.17
2023-03-08T19:44:43.593Z,4.28
2023-03-08T19:49:49.109Z,1.73
2023-03-08T19:54:52.779Z,2.35
2023-03-08T19:59:57.758Z,3.00
2023-03-08T20:05:03.385Z,3.27
2023-03-08T20:10:15.997Z,1.75
2023-03-08T20:15:20.125Z,4.18
2023-03-08T20:20:25.423Z,2.53
2023-03-08T20:25:29.073Z,4.37
2023-03-08T20:30:32.752Z,0.70
2023-03-08T20:35:38.463Z,2.05
2023-03-08T20:40:42.151Z,2.53
2023-03-08T20:45:45.811Z,3.15
2023-03-08T20:50:51.175Z,2.28
2023-03-08T20:55:54.872Z,3.35
2023-03-08T21:00:58.537Z,5.53
2023-03-08T21:06:03.841Z,2.97
2023-03-08T21:11:07.602Z,3.50
2023-03-08T21:16:14.149Z,3.45
2023-03-08T21:21:24.893Z,3.33
2023-03-08T21:26:29.968Z,5.05
2023-03-08T21:31:35.818Z,6.30
2023-03-08T21:41:46.160Z,5.07
2023-03-08T21:46:50.553Z,2.20
2023-03-08T21:51:57.222Z,3.70
2023-03-08T21:57:00.950Z,2.92
2023-03-08T22:02:04.699Z,2.42
2023-03-08T22:07:10.022Z,2.72
2023-03-08T22:12:13.693Z,3.03
2023-03-08T22:17:17.319Z,7.00
2023-03-08T22:22:22.604Z,6.25
2023-03-08T22:27:26.321Z,3.47
2023-03-08T22:32:29.983Z,5.95
2023-03-08T22:37:35.465Z,5.38
2023-03-08T22:42:39.427Z,6.20
2023-03-08T22:47:43.146Z,4.95
2023-03-08T22:52:48.414Z,4.78
2023-03-08T22:57:52.047Z,5.43
2023-03-08T23:02:57.784Z,4.65
2023-03-08T23:08:03.144Z,3.05
2023-03-08T23:13:06.754Z,3.90
2023-03-08T23:18:10.402Z,2.08
2023-03-08T23:23:15.682Z,5.07
2023-03-08T23:28:19.330Z,3.83
2023-03-08T23:33:22.996Z,4.55
2023-03-08T23:38:28.702Z,3.35
2023-03-08T23:43:32.413Z,3.03
2023-03-08T23:48:36.650Z,3.17
2023-03-08T23:53:41.993Z,3.47
2023-03-08T23:58:45.627Z,3.27
